Geneva Cointrin International Airport


Codes: LSGG/GVA
Name: Geneva Cointrin International Airport
City: Geneva
Country: Switzerland
Elevation: 1411 ft.
Website:
Wikipedia:

Photos at Geneva Cointrin International Airport


   Photos courtesy of SpottingLog. You can add your own sightings and photos by signing up for a free trial today.



G-ENRG, 26-May-2024
© Thomas Baynes

D-CAAG, 08-Oct-2023
© Thomas Baynes

SU-GFF, 08-Oct-2023
© Thomas Baynes

HZ-ASAA, 08-Oct-2023
© Thomas Baynes

A7-ALU, 08-Oct-2023
© Thomas Baynes

3A-MSR, 08-Oct-2023
© Thomas Baynes

EI-IND, 08-Oct-2023
© Thomas Baynes

VQ-BQZ, 11-Jul-2021
© Claude Davet

PH-NXA, 11-Jul-2021
© Claude Davet

SX-DNC, 11-Jul-2021
© Claude Davet

CN-RGF, 11-Jul-2021
© Claude Davet

P4-CLA, 11-Jul-2021
© Claude Davet


Weather at Geneva Cointrin International Airport


Time (UTC)DescriptionTempratureWindCloud coverageVisibilityPressureHumidity
17-Jun-2024 06:00Light Rain18°C2 mph, W47%10000m1015hPa74%
17-Jun-2024 09:00Light Rain19°C2 mph, NE73%10000m1015hPa76%
17-Jun-2024 12:00Overcast Clouds22°C2 mph, NE89%10000m1015hPa64%
17-Jun-2024 15:00Scattered Clouds23°C7 mph, E25%10000m1014hPa63%
17-Jun-2024 18:00Light Rain19°C2 mph, NE57%10000m1015hPa88%
17-Jun-2024 21:00Light Rain16°C2 mph, NE62%10000m1016hPa93%
18-Jun-2024 00:00Broken Clouds15°C2 mph, N55%10000m1017hPa93%
18-Jun-2024 03:00Scattered Clouds14°C0 mph, NE47%10000m1016hPa94%
18-Jun-2024 06:00Scattered Clouds16°C2 mph, N47%10000m1016hPa92%
18-Jun-2024 09:00Overcast Clouds22°C2 mph, NE90%10000m1015hPa71%
18-Jun-2024 12:00Broken Clouds26°C2 mph, SE82%10000m1014hPa55%
18-Jun-2024 15:00Broken Clouds28°C4 mph, S69%10000m1013hPa48%
18-Jun-2024 18:00Broken Clouds24°C4 mph, S84%10000m1013hPa79%
18-Jun-2024 21:00Scattered Clouds19°C2 mph, SW41%10000m1014hPa87%
19-Jun-2024 00:00Light Rain17°C2 mph, W71%10000m1015hPa87%
19-Jun-2024 03:00Light Rain16°C0 mph, W85%10000m1016hPa87%
19-Jun-2024 06:00Broken Clouds19°C0 mph, S68%10000m1016hPa83%
19-Jun-2024 09:00Few Clouds24°C2 mph, NE21%10000m1015hPa65%
19-Jun-2024 12:00Few Clouds27°C4 mph, E13%10000m1015hPa57%
19-Jun-2024 15:00Clear Sky28°C4 mph, E2%10000m1015hPa54%
19-Jun-2024 18:00Scattered Clouds24°C2 mph, NE35%10000m1015hPa75%
19-Jun-2024 21:00Scattered Clouds20°C2 mph, N33%10000m1017hPa82%
20-Jun-2024 00:00Light Rain19°C2 mph, SW19%10000m1018hPa91%
20-Jun-2024 03:00Scattered Clouds18°C4 mph, NE38%10000m1017hPa95%
20-Jun-2024 06:00Light Rain19°C4 mph, N63%10000m1019hPa97%
20-Jun-2024 09:00Light Rain20°C4 mph, E100%10000m1018hPa94%
20-Jun-2024 12:00Overcast Clouds23°C2 mph, N99%10000m1017hPa78%
20-Jun-2024 15:00Overcast Clouds25°C4 mph, NE100%10000m1014hPa68%
20-Jun-2024 18:00Broken Clouds24°C4 mph, NE70%10000m1013hPa83%
20-Jun-2024 21:00Broken Clouds20°C2 mph, NW64%10000m1013hPa87%
21-Jun-2024 00:00Light Rain19°C4 mph, SW74%10000m1014hPa89%
21-Jun-2024 03:00Light Rain18°C4 mph, SW100%10000m1015hPa94%
21-Jun-2024 06:00Light Rain18°C4 mph, S100%8219m1015hPa96%
21-Jun-2024 09:00Moderate Rain20°C7 mph, W92%10000m1015hPa78%
21-Jun-2024 12:00Moderate Rain18°C7 mph, SW90%10000m1017hPa92%
21-Jun-2024 15:00Light Rain21°C7 mph, SW78%10000m1017hPa67%
21-Jun-2024 18:00Light Rain21°C2 mph, S39%10000m1016hPa76%
21-Jun-2024 21:00Light Rain15°C2 mph, W2%10000m1018hPa87%
22-Jun-2024 00:00Clear Sky14°C0 mph, NW1%10000m1017hPa89%
22-Jun-2024 03:00Clear Sky13°C2 mph, N2%10000m1017hPa91%